createdAt,value
2023-03-11T00:00:20.048Z,93754.88
2023-03-11T00:02:47.903Z,93752.41
2023-03-11T00:05:21.811Z,93756.03
2023-03-11T00:07:48.677Z,93759.44
2023-03-11T00:10:21.212Z,93765.78
2023-03-11T00:12:47.828Z,93755.91
2023-03-11T00:15:15.061Z,93776.50
2023-03-11T00:17:41.661Z,93784.50
2023-03-11T00:20:14.903Z,93787.84
2023-03-11T00:22:41.513Z,93785.66
2023-03-11T00:25:10.746Z,93771.03
2023-03-11T00:27:37.478Z,93778.91
2023-03-11T00:30:04.849Z,93784.13
2023-03-11T00:32:32.663Z,93788.63
2023-03-11T00:35:01.483Z,93796.66
2023-03-11T00:37:28.062Z,93793.91
2023-03-11T00:39:54.976Z,93791.94
2023-03-11T00:42:21.809Z,93790.41
2023-03-11T00:44:48.737Z,93791.09
2023-03-11T00:47:15.471Z,93787.50
2023-03-11T00:49:42.099Z,93800.91
2023-03-11T00:52:08.745Z,93790.84
2023-03-11T00:54:35.586Z,93803.84
2023-03-11T00:57:02.283Z,93808.50
2023-03-11T00:59:29.263Z,93809.69
2023-03-11T01:01:56.047Z,93815.47
2023-03-11T01:04:22.812Z,93813.19
2023-03-11T01:06:49.371Z,93807.69
2023-03-11T01:09:15.896Z,93806.19
2023-03-11T01:11:43.303Z,93796.97
2023-03-11T01:14:10.092Z,93794.50
2023-03-11T01:16:39.646Z,93796.97
2023-03-11T01:19:07.202Z,93792.22
2023-03-11T01:21:33.791Z,93793.13
2023-03-11T01:24:00.286Z,93792.72
2023-03-11T01:26:27.235Z,93799.66
2023-03-11T01:28:55.828Z,93798.28
2023-03-11T01:31:22.848Z,93795.81
2023-03-11T01:33:49.434Z,93803.66
2023-03-11T01:36:16.344Z,93794.75
2023-03-11T01:38:43.152Z,93806.88
2023-03-11T01:41:11.415Z,93801.38
2023-03-11T01:43:44.269Z,93814.84
2023-03-11T01:46:20.302Z,93808.59
2023-03-11T01:49:05.993Z,93807.19
2023-03-11T01:51:38.966Z,93825.34
2023-03-11T01:54:08.282Z,93815.63
2023-03-11T01:56:37.002Z,93804.91
2023-03-11T01:59:06.907Z,93800.00
2023-03-11T02:01:35.512Z,93802.09
2023-03-11T02:04:04.041Z,93812.47
2023-03-11T02:06:32.638Z,93816.34
2023-03-11T02:09:01.462Z,93796.34
2023-03-11T02:11:30.644Z,93806.31
2023-03-11T02:14:03.378Z,93809.16
2023-03-11T02:16:30.158Z,93801.13
2023-03-11T02:19:02.343Z,93818.72
2023-03-11T02:21:31.874Z,93824.69
2023-03-11T02:24:26.065Z,93828.88
2023-03-11T02:26:58.138Z,93831.75
2023-03-11T02:29:28.462Z,93841.25
2023-03-11T02:31:57.086Z,93839.72
2023-03-11T02:34:28.074Z,93841.03
2023-03-11T02:36:54.660Z,93856.81
2023-03-11T02:39:49.766Z,93866.72
2023-03-11T02:42:26.252Z,93840.41
2023-03-11T02:45:08.707Z,93858.97
2023-03-11T02:47:38.975Z,93854.03
2023-03-11T02:50:11.022Z,93841.16
2023-03-11T02:52:38.308Z,93851.13
2023-03-11T02:55:06.606Z,93859.50
2023-03-11T02:57:34.418Z,93862.91
2023-03-11T03:00:08.252Z,93856.56
2023-03-11T03:02:34.871Z,93848.25
2023-03-11T03:05:02.189Z,93860.94
2023-03-11T03:07:29.724Z,93867.53
2023-03-11T03:09:56.416Z,93864.13
2023-03-11T03:12:23.123Z,93888.19
2023-03-11T03:14:49.871Z,93860.59
2023-03-11T03:17:16.929Z,93862.94
2023-03-11T03:19:43.688Z,93855.19
2023-03-11T03:22:11.936Z,93869.31
2023-03-11T03:24:40.316Z,93880.34
2023-03-11T03:27:07.425Z,93879.28
2023-03-11T03:29:34.265Z,93878.06
2023-03-11T03:32:01.135Z,93876.91
2023-03-11T03:34:27.813Z,93877.72
2023-03-11T03:36:54.529Z,93886.31
2023-03-11T03:39:21.209Z,93876.56
2023-03-11T03:41:50.422Z,93881.34
2023-03-11T03:44:17.345Z,93874.25
2023-03-11T03:46:44.907Z,93876.28
2023-03-11T03:49:12.327Z,93874.84
2023-03-11T03:51:39.364Z,93871.41
2023-03-11T03:54:26.289Z,93877.00
2023-03-11T03:56:53.293Z,93881.25
2023-03-11T03:59:20.739Z,93889.13
2023-03-11T04:01:52.331Z,93897.19
2023-03-11T04:04:20.112Z,93895.16
2023-03-11T04:06:47.329Z,93893.06
2023-03-11T04:09:14.454Z,93884.75
2023-03-11T04:11:42.921Z,93888.06
2023-03-11T04:14:11.621Z,93882.59
2023-03-11T04:16:44.242Z,93884.31
2023-03-11T04:19:12.252Z,93893.88
2023-03-11T04:21:39.116Z,93894.00
2023-03-11T04:24:06.373Z,93885.22
2023-03-11T04:26:35.956Z,93892.47
2023-03-11T04:29:03.549Z,93889.00
2023-03-11T04:31:37.246Z,93889.84
2023-03-11T04:34:06.400Z,93888.72
2023-03-11T04:36:33.450Z,93903.41
2023-03-11T04:39:00.703Z,93898.03
2023-03-11T04:41:30.780Z,93895.00
2023-03-11T04:43:59.593Z,93895.53
2023-03-11T04:46:26.807Z,93896.00
2023-03-11T04:48:53.709Z,93904.34
2023-03-11T04:51:20.280Z,93905.84
2023-03-11T04:53:46.914Z,93899.06
2023-03-11T04:56:13.772Z,93900.78
2023-03-11T04:58:40.566Z,93907.81
2023-03-11T05:01:07.336Z,93910.69
2023-03-11T05:03:37.546Z,93912.22
2023-03-11T05:06:07.300Z,93908.53
2023-03-11T05:08:34.027Z,93914.66
2023-03-11T05:11:00.763Z,93916.13
2023-03-11T05:13:27.413Z,93917.19
2023-03-11T05:15:54.521Z,93920.63
2023-03-11T05:18:21.774Z,93920.28
2023-03-11T05:20:49.489Z,93920.50
2023-03-11T05:23:17.824Z,93925.84
2023-03-11T05:25:44.620Z,93924.53
2023-03-11T05:28:11.827Z,93933.19
2023-03-11T05:30:44.118Z,93938.59
2023-03-11T05:33:11.290Z,93934.47
2023-03-11T05:35:38.025Z,93937.13
2023-03-11T05:38:05.007Z,93939.66
2023-03-11T05:40:32.502Z,93935.28
2023-03-11T05:42:59.256Z,93932.16
2023-03-11T05:45:28.255Z,93934.22
2023-03-11T05:47:56.699Z,93946.44
2023-03-11T05:50:24.279Z,93942.72
2023-03-11T05:52:52.465Z,93940.88
2023-03-11T05:55:20.801Z,93944.34
2023-03-11T05:57:51.258Z,93945.72
2023-03-11T06:00:20.507Z,93941.09
2023-03-11T06:02:50.684Z,93940.88
2023-03-11T06:05:19.025Z,93944.34
2023-03-11T06:07:48.006Z,93947.69
2023-03-11T06:10:14.750Z,93953.91
2023-03-11T06:12:42.297Z,93957.22
2023-03-11T06:15:14.987Z,93969.19
2023-03-11T06:17:42.643Z,93971.97
2023-03-11T06:20:10.146Z,93970.44
2023-03-11T06:22:39.957Z,93967.91
2023-03-11T06:25:08.035Z,93977.03
2023-03-11T06:27:35.269Z,93974.25
2023-03-11T06:30:02.343Z,93976.44
2023-03-11T06:32:34.610Z,93981.09
2023-03-11T06:35:01.253Z,93987.31
2023-03-11T06:37:28.094Z,93989.88
2023-03-11T06:39:56.182Z,93995.19
2023-03-11T06:42:24.655Z,93995.34
2023-03-11T06:44:53.495Z,93991.84
2023-03-11T06:47:20.328Z,93993.25
2023-03-11T06:49:48.110Z,93995.25
2023-03-11T06:52:16.597Z,94002.63
2023-03-11T06:54:44.263Z,94005.38
2023-03-11T06:57:11.532Z,94015.50
2023-03-11T06:59:39.589Z,94015.19
2023-03-11T07:02:12.509Z,94023.63
2023-03-11T07:04:41.398Z,94022.00
2023-03-11T07:07:08.058Z,94031.06
2023-03-11T07:09:35.035Z,94035.47
2023-03-11T07:12:04.437Z,94043.91
2023-03-11T07:14:35.885Z,94048.06
2023-03-11T07:17:02.876Z,94062.28
2023-03-11T07:19:35.739Z,94054.91
2023-03-11T07:22:02.320Z,94062.31
2023-03-11T07:24:29.009Z,94063.09
2023-03-11T07:26:55.669Z,94073.84
2023-03-11T07:29:22.254Z,94074.31
2023-03-11T07:31:49.648Z,94076.41
2023-03-11T07:34:16.635Z,94082.38
2023-03-11T07:36:43.575Z,94084.59
2023-03-11T07:39:17.696Z,94086.44
2023-03-11T07:41:44.571Z,94087.69
2023-03-11T07:44:15.747Z,94094.63
2023-03-11T07:46:43.715Z,94097.16
2023-03-11T07:49:10.354Z,94102.16
2023-03-11T07:51:38.708Z,94098.16
2023-03-11T07:54:05.616Z,94100.28
2023-03-11T07:56:34.533Z,94105.28
2023-03-11T07:59:02.373Z,94105.97
2023-03-11T08:01:36.026Z,94103.69
2023-03-11T08:04:08.526Z,94105.09
2023-03-11T08:06:36.915Z,94099.38
2023-03-11T08:09:07.279Z,94111.06
2023-03-11T08:11:35.141Z,94110.63
2023-03-11T08:14:02.414Z,94121.22
2023-03-11T08:16:29.427Z,94118.00
2023-03-11T08:18:55.994Z,94119.69
2023-03-11T08:21:25.898Z,94120.41
2023-03-11T08:23:56.518Z,94122.47
2023-03-11T08:26:23.716Z,94123.09
2023-03-11T08:28:50.628Z,94118.56
2023-03-11T08:31:20.269Z,94126.00
2023-03-11T08:33:49.946Z,94125.28
2023-03-11T08:36:17.541Z,94120.25
2023-03-11T08:38:44.346Z,94125.59
2023-03-11T08:41:11.038Z,94125.66
2023-03-11T08:43:38.122Z,94130.75
2023-03-11T08:46:08.894Z,94136.59
2023-03-11T08:48:37.171Z,94138.94
2023-03-11T08:51:10.332Z,94147.16
2023-03-11T08:53:37.834Z,94142.19
2023-03-11T08:56:05.266Z,94142.00
2023-03-11T08:58:32.100Z,94142.06
2023-03-11T09:00:59.394Z,94150.50
2023-03-11T09:03:25.929Z,94152.00
2023-03-11T09:06:00.234Z,94140.50
2023-03-11T09:08:27.646Z,94144.50
2023-03-11T09:10:54.440Z,94144.94
2023-03-11T09:13:21.476Z,94135.81
2023-03-11T09:15:52.294Z,94148.72
2023-03-11T09:18:19.682Z,94138.59
2023-03-11T09:20:46.931Z,94143.44
2023-03-11T09:23:16.147Z,94146.75
2023-03-11T09:25:43.067Z,94147.00
2023-03-11T09:28:09.640Z,94148.47
2023-03-11T09:30:36.496Z,94147.00
2023-03-11T09:33:03.185Z,94146.44
2023-03-11T09:35:29.905Z,94149.78
2023-03-11T09:37:56.475Z,94154.28
2023-03-11T09:40:28.181Z,94155.78
2023-03-11T09:42:54.881Z,94154.78
2023-03-11T09:45:28.231Z,94157.56
2023-03-11T09:48:07.227Z,94158.84
2023-03-11T09:50:43.629Z,94153.38
2023-03-11T09:53:19.999Z,94156.47
2023-03-11T09:55:48.828Z,94168.16
2023-03-11T09:58:17.692Z,94167.44
2023-03-11T10:00:45.077Z,94164.31
2023-03-11T10:03:22.943Z,94164.91
2023-03-11T10:05:52.275Z,94171.31
2023-03-11T10:08:29.102Z,94164.19
2023-03-11T10:11:26.096Z,94167.63
2023-03-11T10:14:22.398Z,94168.19
2023-03-11T10:17:18.984Z,94171.56
2023-03-11T10:20:06.006Z,94171.19
2023-03-11T10:22:51.353Z,94166.59
2023-03-11T10:25:29.149Z,94174.13
2023-03-11T10:27:59.647Z,94171.38
2023-03-11T10:30:33.278Z,94179.13
2023-03-11T10:33:06.469Z,94180.41
2023-03-11T10:35:40.980Z,94171.91
2023-03-11T10:38:15.917Z,94180.88
2023-03-11T10:40:45.067Z,94187.88
2023-03-11T10:43:16.723Z,94176.56
2023-03-11T10:45:46.119Z,94179.94
2023-03-11T10:48:15.602Z,94179.94
2023-03-11T10:50:57.030Z,94186.06
2023-03-11T10:53:24.235Z,94184.16
2023-03-11T10:55:53.676Z,94196.00
2023-03-11T10:58:24.165Z,94189.19
2023-03-11T11:01:03.983Z,94182.16
2023-03-11T11:03:31.536Z,94179.53
2023-03-11T11:06:07.406Z,94182.09
2023-03-11T11:08:34.502Z,94187.19
2023-03-11T11:11:03.665Z,94183.69
2023-03-11T11:13:34.710Z,94178.50
2023-03-11T11:16:20.946Z,94177.75
2023-03-11T11:19:02.570Z,94188.84
2023-03-11T11:21:48.927Z,94183.13
2023-03-11T11:24:23.703Z,94178.88
2023-03-11T11:27:14.236Z,94174.03
2023-03-11T11:29:45.441Z,94175.34
2023-03-11T11:32:19.099Z,94174.16
2023-03-11T11:35:09.404Z,94175.84
2023-03-11T11:37:39.873Z,94168.56
2023-03-11T11:40:16.492Z,94176.91
2023-03-11T11:42:52.143Z,94172.59
2023-03-11T11:45:32.085Z,94166.72
2023-03-11T11:48:04.596Z,94172.19
2023-03-11T11:50:38.353Z,94170.34
2023-03-11T11:53:20.704Z,94163.34
2023-03-11T11:55:49.726Z,94167.53
2023-03-11T11:58:16.536Z,94167.41
2023-03-11T12:01:15.340Z,94161.88
2023-03-11T12:04:07.848Z,94156.25
2023-03-11T12:06:40.893Z,94156.38
2023-03-11T12:09:45.216Z,94149.44
2023-03-11T12:12:17.944Z,94156.59
2023-03-11T12:15:10.233Z,94146.78
2023-03-11T12:17:42.587Z,94137.69
2023-03-11T12:20:18.603Z,94136.59
2023-03-11T12:23:18.710Z,94141.56
2023-03-11T12:26:10.225Z,94144.81
2023-03-11T12:28:51.010Z,94141.59
2023-03-11T12:31:17.713Z,94136.63
2023-03-11T12:33:51.442Z,94140.75
2023-03-11T12:36:21.644Z,94131.81
2023-03-11T12:38:49.698Z,94133.16
2023-03-11T12:41:40.121Z,94130.81
2023-03-11T12:44:22.215Z,94136.63
2023-03-11T12:46:58.147Z,94130.00
2023-03-11T12:49:25.716Z,94123.81
2023-03-11T12:52:02.788Z,94125.94
2023-03-11T12:54:31.864Z,94127.47
2023-03-11T12:57:01.340Z,94121.50
2023-03-11T13:00:01.979Z,94119.53
2023-03-11T13:02:54.116Z,94130.59
2023-03-11T13:05:45.584Z,94118.13
2023-03-11T13:08:15.429Z,94120.56
2023-03-11T13:10:46.379Z,94111.91
2023-03-11T13:13:25.238Z,94115.91
2023-03-11T13:15:53.111Z,94111.22
2023-03-11T13:18:23.570Z,94122.41
2023-03-11T13:20:56.039Z,94120.78
2023-03-11T13:23:29.712Z,94123.69
2023-03-11T13:25:56.445Z,94125.22
2023-03-11T13:28:48.046Z,94125.03
2023-03-11T13:31:33.571Z,94128.00
2023-03-11T13:34:22.194Z,94124.28
2023-03-11T13:37:09.502Z,94120.94
2023-03-11T13:39:51.571Z,94130.88
2023-03-11T13:42:31.252Z,94129.13
2023-03-11T13:44:59.760Z,94137.34
2023-03-11T13:47:28.956Z,94134.28
2023-03-11T13:50:05.517Z,94138.13
2023-03-11T13:52:39.601Z,94132.13
2023-03-11T13:55:15.857Z,94134.97
2023-03-11T13:57:50.363Z,94130.38
2023-03-11T14:00:24.126Z,94133.25
2023-03-11T14:02:55.402Z,94131.59
2023-03-11T14:05:26.942Z,94136.88
2023-03-11T14:07:54.335Z,94136.75
2023-03-11T14:10:25.306Z,94135.84
2023-03-11T14:13:04.343Z,94129.06
2023-03-11T14:15:43.797Z,94137.13
2023-03-11T14:18:31.151Z,94131.69
2023-03-11T14:20:58.452Z,94138.59
2023-03-11T14:23:32.973Z,94135.22
2023-03-11T14:26:08.251Z,94134.13
2023-03-11T14:28:38.842Z,94137.75
2023-03-11T14:31:05.902Z,94136.72
2023-03-11T14:33:32.865Z,94139.41
2023-03-11T14:36:03.712Z,94147.09
2023-03-11T14:38:32.283Z,94145.25
2023-03-11T14:41:02.198Z,94145.78
2023-03-11T14:43:33.711Z,94150.09
2023-03-11T14:46:03.030Z,94151.50
2023-03-11T14:48:37.274Z,94160.44
2023-03-11T14:51:06.162Z,94161.53
2023-03-11T14:53:41.880Z,94157.63
2023-03-11T14:56:21.987Z,94161.34
2023-03-11T14:59:34.972Z,94161.56
2023-03-11T15:02:25.466Z,94158.72
2023-03-11T15:04:54.539Z,94168.19
2023-03-11T15:07:22.590Z,94159.56
2023-03-11T15:09:49.554Z,94161.34
2023-03-11T15:12:37.726Z,94164.88
2023-03-11T15:15:21.999Z,94174.75
2023-03-11T15:17:57.905Z,94167.00
2023-03-11T15:20:37.493Z,94167.84
2023-03-11T15:23:06.536Z,94169.00
2023-03-11T15:25:38.858Z,94168.19
2023-03-11T15:28:20.645Z,94165.41
2023-03-11T15:30:47.485Z,94166.97
2023-03-11T15:33:23.437Z,94168.06
2023-03-11T15:35:50.368Z,94174.03
2023-03-11T15:38:28.445Z,94174.94
2023-03-11T15:41:03.954Z,94171.59
2023-03-11T15:43:41.523Z,94177.34
2023-03-11T15:46:10.539Z,94177.00
2023-03-11T15:48:37.156Z,94173.00
2023-03-11T15:51:03.992Z,94173.88
2023-03-11T15:53:32.494Z,94180.22
2023-03-11T15:56:07.743Z,94186.28
2023-03-11T15:58:37.876Z,94192.84
2023-03-11T16:01:04.798Z,94210.31
2023-03-11T16:03:31.707Z,94204.53
2023-03-11T16:05:58.589Z,94199.84
2023-03-11T16:08:25.269Z,94188.81
2023-03-11T16:10:52.179Z,94181.38
2023-03-11T16:13:18.845Z,94187.25
2023-03-11T16:15:47.288Z,94190.25
2023-03-11T16:18:14.096Z,94185.22
2023-03-11T16:20:53.140Z,94179.41
2023-03-11T16:23:26.357Z,94186.63
2023-03-11T16:25:59.654Z,94193.06
2023-03-11T16:28:26.575Z,94201.59
2023-03-11T16:30:53.232Z,94203.00
2023-03-11T16:33:20.128Z,94217.53
2023-03-11T16:35:46.788Z,94224.41
2023-03-11T16:38:14.191Z,94222.41
2023-03-11T16:40:41.098Z,94225.53
2023-03-11T16:43:10.455Z,94235.59
2023-03-11T16:45:39.945Z,94236.19
2023-03-11T16:48:07.362Z,94242.00
2023-03-11T16:50:34.472Z,94252.25
2023-03-11T16:53:03.039Z,94250.78
2023-03-11T16:55:29.917Z,94256.31
2023-03-11T16:57:57.595Z,94252.28
2023-03-11T17:00:25.110Z,94257.53
2023-03-11T17:02:51.978Z,94267.22
2023-03-11T17:05:18.958Z,94274.47
2023-03-11T17:07:45.909Z,94266.81
2023-03-11T17:10:15.632Z,94272.34
2023-03-11T17:12:42.392Z,94264.13
2023-03-11T17:15:09.272Z,94271.78
2023-03-11T17:17:36.351Z,94281.69
2023-03-11T17:20:06.415Z,94290.03
2023-03-11T17:22:32.938Z,94290.13
2023-03-11T17:24:59.694Z,94293.06
2023-03-11T17:27:31.994Z,94295.88
2023-03-11T17:30:04.208Z,94308.03
2023-03-11T17:32:31.084Z,94312.63
2023-03-11T17:34:58.250Z,94324.34
2023-03-11T17:37:25.206Z,94326.72
2023-03-11T17:39:52.051Z,94329.63
2023-03-11T17:42:18.831Z,94325.69
2023-03-11T17:44:51.866Z,94331.56
2023-03-11T17:47:19.904Z,94337.97
2023-03-11T17:49:47.698Z,94338.81
2023-03-11T17:52:14.298Z,94338.75
2023-03-11T17:54:41.064Z,94350.16
2023-03-11T17:57:07.987Z,94354.94
2023-03-11T17:59:34.720Z,94360.16
2023-03-11T18:02:01.616Z,94353.06
2023-03-11T18:04:28.502Z,94360.84
2023-03-11T18:06:55.858Z,94368.47
2023-03-11T18:09:22.749Z,94366.91
2023-03-11T18:11:54.350Z,94370.53
2023-03-11T18:14:21.031Z,94368.88
2023-03-11T18:16:47.868Z,94365.63
2023-03-11T18:19:14.507Z,94368.41
2023-03-11T18:21:42.646Z,94366.59
2023-03-11T18:24:09.350Z,94369.13
2023-03-11T18:26:36.097Z,94367.44
2023-03-11T18:29:02.696Z,94375.34
2023-03-11T18:31:30.890Z,94376.38
2023-03-11T18:34:00.165Z,94367.09
2023-03-11T18:36:28.416Z,94379.72
2023-03-11T18:38:59.448Z,94378.91
2023-03-11T18:41:27.617Z,94392.34
2023-03-11T18:44:17.894Z,94397.34
2023-03-11T18:46:50.338Z,94393.50
2023-03-11T18:49:16.905Z,94393.53
2023-03-11T18:51:43.523Z,94389.38
2023-03-11T18:54:10.600Z,94390.06
2023-03-11T18:56:37.349Z,94389.13
2023-03-11T18:59:03.974Z,94386.94
2023-03-11T19:01:30.835Z,94386.81
2023-03-11T19:03:59.298Z,94402.00
2023-03-11T19:06:28.031Z,94400.16
2023-03-11T19:08:55.298Z,94400.13
2023-03-11T19:11:23.557Z,94401.38
2023-03-11T19:13:50.689Z,94405.06
2023-03-11T19:16:20.863Z,94412.94
2023-03-11T19:18:48.421Z,94417.66
2023-03-11T19:21:16.210Z,94419.88
2023-03-11T19:23:44.075Z,94423.44
2023-03-11T19:26:10.819Z,94422.59
2023-03-11T19:28:37.567Z,94424.69
2023-03-11T19:31:05.349Z,94427.78
2023-03-11T19:33:32.542Z,94429.38
2023-03-11T19:36:01.908Z,94432.69
2023-03-11T19:38:28.993Z,94439.53
2023-03-11T19:41:14.425Z,94438.59
2023-03-11T19:43:42.189Z,94443.22
2023-03-11T19:46:11.092Z,94444.66
2023-03-11T19:48:37.897Z,94462.28
2023-03-11T19:51:05.997Z,94457.31
2023-03-11T19:53:34.184Z,94463.91
2023-03-11T19:56:03.395Z,94458.81
2023-03-11T19:58:31.272Z,94461.50
2023-03-11T20:00:59.225Z,94462.97
2023-03-11T20:03:26.556Z,94464.16
2023-03-11T20:05:56.487Z,94463.78
2023-03-11T20:08:24.681Z,94471.78
2023-03-11T20:10:53.033Z,94472.78
2023-03-11T20:13:21.316Z,94476.03
2023-03-11T20:15:48.970Z,94478.78
2023-03-11T20:18:15.997Z,94480.59
2023-03-11T20:20:46.629Z,94488.38
2023-03-11T20:23:13.789Z,94487.78
2023-03-11T20:25:41.756Z,94481.09
2023-03-11T20:28:09.488Z,94485.56
2023-03-11T20:30:38.491Z,94477.41
2023-03-11T20:33:05.996Z,94482.09
2023-03-11T20:35:32.959Z,94480.22
2023-03-11T20:37:59.848Z,94484.06
2023-03-11T20:40:29.698Z,94486.41
2023-03-11T20:42:56.551Z,94474.41
2023-03-11T20:45:23.129Z,94480.50
2023-03-11T20:47:53.747Z,94469.53
2023-03-11T20:50:21.767Z,94476.78
2023-03-11T20:52:48.682Z,94480.03
2023-03-11T20:55:15.305Z,94483.78
2023-03-11T20:57:42.204Z,94491.50
2023-03-11T21:00:13.252Z,94488.97
2023-03-11T21:02:41.693Z,94489.50
2023-03-11T21:05:09.855Z,94490.81
2023-03-11T21:07:36.750Z,94495.28
2023-03-11T21:10:07.189Z,94490.09
2023-03-11T21:12:33.849Z,94482.47
2023-03-11T21:15:00.604Z,94482.00
2023-03-11T21:17:27.211Z,94485.56
2023-03-11T21:19:53.821Z,94489.06
2023-03-11T21:22:20.522Z,94489.97
2023-03-11T21:24:54.350Z,94490.66
2023-03-11T21:27:26.403Z,94486.72
2023-03-11T21:29:57.918Z,94480.84
2023-03-11T21:32:27.550Z,94472.94
2023-03-11T21:34:59.016Z,94478.53
2023-03-11T21:37:27.148Z,94487.06
2023-03-11T21:39:54.643Z,94492.75
2023-03-11T21:42:21.644Z,94501.94
2023-03-11T21:44:48.796Z,94505.41
2023-03-11T21:47:15.477Z,94512.72
2023-03-11T21:49:42.203Z,94504.81
2023-03-11T21:52:09.234Z,94510.41
2023-03-11T21:54:36.281Z,94507.28
2023-03-11T21:57:03.107Z,94510.19
2023-03-11T21:59:30.442Z,94514.50
2023-03-11T22:02:01.254Z,94517.41
2023-03-11T22:04:29.317Z,94518.13
2023-03-11T22:06:57.337Z,94514.97
2023-03-11T22:09:25.775Z,94507.16
2023-03-11T22:11:52.816Z,94502.91
2023-03-11T22:14:19.457Z,94501.69
2023-03-11T22:16:46.223Z,94496.50
2023-03-11T22:19:12.918Z,94500.34
2023-03-11T22:21:39.795Z,94493.75
2023-03-11T22:24:07.051Z,94504.44
2023-03-11T22:26:33.818Z,94502.31
2023-03-11T22:29:02.402Z,94506.66
2023-03-11T22:31:30.794Z,94510.81
2023-03-11T22:33:57.942Z,94510.41
2023-03-11T22:36:24.679Z,94521.69
2023-03-11T22:38:51.492Z,94524.13
2023-03-11T22:41:19.630Z,94510.03
2023-03-11T22:43:47.225Z,94514.78
2023-03-11T22:46:14.285Z,94519.25
2023-03-11T22:48:41.110Z,94515.00
2023-03-11T22:51:07.869Z,94519.75
2023-03-11T22:53:34.719Z,94528.78
2023-03-11T22:56:07.164Z,94520.88
2023-03-11T22:58:33.843Z,94523.00
2023-03-11T23:01:01.040Z,94525.44
2023-03-11T23:03:27.729Z,94530.91
2023-03-11T23:05:54.576Z,94526.03
2023-03-11T23:08:21.086Z,94523.72
2023-03-11T23:10:47.898Z,94523.31
2023-03-11T23:13:15.015Z,94520.38
2023-03-11T23:15:43.720Z,94526.66
2023-03-11T23:18:11.206Z,94522.00
2023-03-11T23:20:39.507Z,94522.78
2023-03-11T23:23:06.859Z,94523.19
2023-03-11T23:25:35.209Z,94519.13
2023-03-11T23:28:03.864Z,94517.41
2023-03-11T23:30:31.676Z,94523.53
2023-03-11T23:32:59.247Z,94523.31
2023-03-11T23:35:25.971Z,94526.03
2023-03-11T23:37:52.718Z,94513.25
2023-03-11T23:40:19.459Z,94519.94
2023-03-11T23:42:46.046Z,94527.88
2023-03-11T23:45:12.889Z,94529.31
2023-03-11T23:47:39.576Z,94533.66
2023-03-11T23:50:06.653Z,94538.34
2023-03-11T23:52:33.965Z,94540.88
2023-03-11T23:55:01.194Z,94540.16
2023-03-11T23:57:28.018Z,94541.69
2023-03-11T23:59:54.670Z,94547.78
